sensor_id;sensor_type;location;lat;lon;timestamp;pressure;altitude;pressure_sealevel;temperature;humidity
82395;BME280;72031;51.786;4.662;2023-08-21T00:01:21;102446.41;;;18.61;78.40
82395;BME280;72031;51.786;4.662;2023-08-21T00:03:47;102436.88;;;18.68;77.61
82395;BME280;72031;51.786;4.662;2023-08-21T00:06:12;102441.28;;;18.69;76.77
82395;BME280;72031;51.786;4.662;2023-08-21T00:08:38;102439.19;;;18.72;76.01
82395;BME280;72031;51.786;4.662;2023-08-21T00:11:03;102434.16;;;18.68;75.30
82395;BME280;72031;51.786;4.662;2023-08-21T00:13:29;102438.59;;;18.69;75.44
82395;BME280;72031;51.786;4.662;2023-08-21T00:15:54;102442.38;;;18.66;75.86
82395;BME280;72031;51.786;4.662;2023-08-21T00:18:21;102443.44;;;18.52;77.36
82395;BME280;72031;51.786;4.662;2023-08-21T00:20:46;102438.97;;;18.40;78.28
82395;BME280;72031;51.786;4.662;2023-08-21T00:23:12;102435.78;;;18.46;76.69
82395;BME280;72031;51.786;4.662;2023-08-21T00:25:37;102446.63;;;18.57;76.38
82395;BME280;72031;51.786;4.662;2023-08-21T00:28:03;102446.16;;;18.64;77.26
82395;BME280;72031;51.786;4.662;2023-08-21T00:30:28;102450.53;;;18.42;78.95
82395;BME280;72031;51.786;4.662;2023-08-21T00:32:54;102452.53;;;18.16;79.18
82395;BME280;72031;51.786;4.662;2023-08-21T00:35:19;102447.47;;;18.12;78.80
82395;BME280;72031;51.786;4.662;2023-08-21T00:37:45;102450.00;;;18.26;78.41
82395;BME280;72031;51.786;4.662;2023-08-21T00:40:10;102445.63;;;18.47;78.40
82395;BME280;72031;51.786;4.662;2023-08-21T00:42:36;102431.75;;;18.52;76.44
82395;BME280;72031;51.786;4.662;2023-08-21T00:45:02;102438.88;;;18.42;78.16
82395;BME280;72031;51.786;4.662;2023-08-21T00:47:28;102431.22;;;18.36;78.72
82395;BME280;72031;51.786;4.662;2023-08-21T00:49:55;102430.56;;;18.32;79.78
82395;BME280;72031;51.786;4.662;2023-08-21T00:52:21;102433.00;;;18.24;80.43
82395;BME280;72031;51.786;4.662;2023-08-21T00:54:46;102432.66;;;18.17;81.13
82395;BME280;72031;51.786;4.662;2023-08-21T00:57:13;102421.84;;;18.28;80.04
82395;BME280;72031;51.786;4.662;2023-08-21T00:59:40;102430.13;;;18.38;79.48
82395;BME280;72031;51.786;4.662;2023-08-21T01:02:05;102430.00;;;18.40;77.68
82395;BME280;72031;51.786;4.662;2023-08-21T01:04:31;102429.50;;;18.35;78.50
82395;BME280;72031;51.786;4.662;2023-08-21T01:06:57;102420.81;;;18.42;77.88
82395;BME280;72031;51.786;4.662;2023-08-21T01:09:27;102429.66;;;18.44;76.77
82395;BME280;72031;51.786;4.662;2023-08-21T01:12:20;102426.09;;;18.55;77.75
82395;BME280;72031;51.786;4.662;2023-08-21T01:14:59;102425.84;;;18.58;76.98
82395;BME280;72031;51.786;4.662;2023-08-21T01:17:26;102433.59;;;18.63;77.05
82395;BME280;72031;51.786;4.662;2023-08-21T01:19:52;102428.19;;;18.63;78.55
82395;BME280;72031;51.786;4.662;2023-08-21T01:22:18;102431.63;;;18.53;79.39
82395;BME280;72031;51.786;4.662;2023-08-21T01:24:44;102433.22;;;18.45;80.42
82395;BME280;72031;51.786;4.662;2023-08-21T01:27:12;102436.53;;;18.48;80.25
82395;BME280;72031;51.786;4.662;2023-08-21T01:29:39;102434.34;;;18.53;78.84
82395;BME280;72031;51.786;4.662;2023-08-21T01:32:14;102436.31;;;18.63;78.40
82395;BME280;72031;51.786;4.662;2023-08-21T01:34:48;102440.47;;;18.55;78.35
82395;BME280;72031;51.786;4.662;2023-08-21T01:37:17;102439.03;;;18.63;78.50
82395;BME280;72031;51.786;4.662;2023-08-21T01:39:43;102441.16;;;18.70;78.47
82395;BME280;72031;51.786;4.662;2023-08-21T01:42:08;102436.34;;;18.74;78.51
82395;BME280;72031;51.786;4.662;2023-08-21T01:44:35;102439.91;;;18.74;79.39
82395;BME280;72031;51.786;4.662;2023-08-21T01:47:00;102445.16;;;18.65;79.24
82395;BME280;72031;51.786;4.662;2023-08-21T01:49:26;102440.31;;;18.70;78.53
82395;BME280;72031;51.786;4.662;2023-08-21T01:51:51;102435.38;;;18.75;78.25
82395;BME280;72031;51.786;4.662;2023-08-21T01:54:16;102439.31;;;18.82;77.40
82395;BME280;72031;51.786;4.662;2023-08-21T01:56:42;102444.25;;;18.88;76.99
82395;BME280;72031;51.786;4.662;2023-08-21T01:59:07;102435.53;;;18.84;78.24
82395;BME280;72031;51.786;4.662;2023-08-21T02:01:33;102438.84;;;18.88;77.48
82395;BME280;72031;51.786;4.662;2023-08-21T02:03:59;102440.56;;;18.89;77.68
82395;BME280;72031;51.786;4.662;2023-08-21T02:06:24;102437.72;;;18.91;77.67
82395;BME280;72031;51.786;4.662;2023-08-21T02:08:50;102445.09;;;18.77;79.32
82395;BME280;72031;51.786;4.662;2023-08-21T02:11:15;102442.97;;;18.59;79.66
82395;BME280;72031;51.786;4.662;2023-08-21T02:13:41;102439.75;;;18.53;80.12
82395;BME280;72031;51.786;4.662;2023-08-21T02:16:06;102441.84;;;18.61;79.80
82395;BME280;72031;51.786;4.662;2023-08-21T02:18:32;102434.03;;;18.69;79.40
82395;BME280;72031;51.786;4.662;2023-08-21T02:20:57;102443.13;;;18.79;78.08
82395;BME280;72031;51.786;4.662;2023-08-21T02:23:23;102436.34;;;18.74;78.13
82395;BME280;72031;51.786;4.662;2023-08-21T02:25:49;102426.91;;;18.79;77.67
82395;BME280;72031;51.786;4.662;2023-08-21T02:28:15;102435.16;;;19.00;77.30
82395;BME280;72031;51.786;4.662;2023-08-21T02:30:41;102446.81;;;18.78;79.42
82395;BME280;72031;51.786;4.662;2023-08-21T02:33:07;102445.16;;;18.53;79.91
82395;BME280;72031;51.786;4.662;2023-08-21T02:35:32;102441.13;;;18.59;79.10
82395;BME280;72031;51.786;4.662;2023-08-21T02:37:58;102438.31;;;18.72;78.12
82395;BME280;72031;51.786;4.662;2023-08-21T02:40:23;102435.41;;;18.86;77.64
82395;BME280;72031;51.786;4.662;2023-08-21T02:42:49;102428.78;;;19.01;77.68
82395;BME280;72031;51.786;4.662;2023-08-21T02:45:14;102437.72;;;19.13;77.33
82395;BME280;72031;51.786;4.662;2023-08-21T02:47:42;102442.41;;;19.22;77.81
82395;BME280;72031;51.786;4.662;2023-08-21T02:50:09;102431.22;;;19.04;79.21
82395;BME280;72031;51.786;4.662;2023-08-21T02:52:35;102420.75;;;19.00;78.44
82395;BME280;72031;51.786;4.662;2023-08-21T02:55:02;102434.91;;;19.15;78.26
82395;BME280;72031;51.786;4.662;2023-08-21T02:57:28;102431.97;;;18.95;79.49
82395;BME280;72031;51.786;4.662;2023-08-21T02:59:55;102429.72;;;18.67;80.63
82395;BME280;72031;51.786;4.662;2023-08-21T03:02:20;102433.41;;;18.66;80.13
82395;BME280;72031;51.786;4.662;2023-08-21T03:04:46;102436.88;;;18.68;79.95
82395;BME280;72031;51.786;4.662;2023-08-21T03:07:12;102435.03;;;18.68;79.70
82395;BME280;72031;51.786;4.662;2023-08-21T03:09:39;102435.44;;;18.51;80.68
82395;BME280;72031;51.786;4.662;2023-08-21T03:12:05;102441.72;;;18.51;81.47
82395;BME280;72031;51.786;4.662;2023-08-21T03:14:31;102441.19;;;18.46;81.30
82395;BME280;72031;51.786;4.662;2023-08-21T03:16:57;102439.75;;;18.53;80.73
82395;BME280;72031;51.786;4.662;2023-08-21T03:19:22;102428.69;;;18.56;80.07
82395;BME280;72031;51.786;4.662;2023-08-21T03:21:48;102434.47;;;18.63;79.83
82395;BME280;72031;51.786;4.662;2023-08-21T03:24:14;102442.38;;;18.66;79.43
82395;BME280;72031;51.786;4.662;2023-08-21T03:26:40;102436.88;;;18.68;78.66
82395;BME280;72031;51.786;4.662;2023-08-21T03:29:05;102437.59;;;18.70;78.52
82395;BME280;72031;51.786;4.662;2023-08-21T03:31:31;102434.94;;;18.57;80.44
82395;BME280;72031;51.786;4.662;2023-08-21T03:33:56;102429.66;;;18.55;81.01
82395;BME280;72031;51.786;4.662;2023-08-21T03:36:23;102427.47;;;18.61;80.15
82395;BME280;72031;51.786;4.662;2023-08-21T03:39:00;102426.78;;;18.70;79.61
82395;BME280;72031;51.786;4.662;2023-08-21T03:41:27;102429.47;;;18.70;79.98
82395;BME280;72031;51.786;4.662;2023-08-21T03:43:53;102431.25;;;18.58;80.74
82395;BME280;72031;51.786;4.662;2023-08-21T03:46:19;102433.75;;;18.61;80.01
82395;BME280;72031;51.786;4.662;2023-08-21T03:48:44;102425.28;;;18.66;79.42
82395;BME280;72031;51.786;4.662;2023-08-21T03:51:09;102430.22;;;18.72;78.99
82395;BME280;72031;51.786;4.662;2023-08-21T03:53:35;102431.72;;;18.76;77.67
82395;BME280;72031;51.786;4.662;2023-08-21T03:56:00;102427.47;;;18.61;78.71
82395;BME280;72031;51.786;4.662;2023-08-21T03:58:26;102433.34;;;18.54;78.37
82395;BME280;72031;51.786;4.662;2023-08-21T04:00:54;102434.09;;;18.56;77.91
82395;BME280;72031;51.786;4.662;2023-08-21T04:03:21;102433.47;;;18.53;78.35
82395;BME280;72031;51.786;4.662;2023-08-21T04:05:47;102432.63;;;18.52;78.60
82395;BME280;72031;51.786;4.662;2023-08-21T04:08:13;102431.16;;;18.60;78.49
82395;BME280;72031;51.786;4.662;2023-08-21T04:10:38;102434.88;;;18.70;78.13
82395;BME280;72031;51.786;4.662;2023-08-21T04:13:04;102435.34;;;18.64;78.28
82395;BME280;72031;51.786;4.662;2023-08-21T04:15:30;102435.28;;;18.41;80.55
82395;BME280;72031;51.786;4.662;2023-08-21T04:17:55;102440.59;;;18.43;80.58
82395;BME280;72031;51.786;4.662;2023-08-21T04:20:21;102446.88;;;18.54;79.25
82395;BME280;72031;51.786;4.662;2023-08-21T04:22:47;102442.97;;;18.59;79.13
82395;BME280;72031;51.786;4.662;2023-08-21T04:25:13;102444.69;;;18.60;79.18
82395;BME280;72031;51.786;4.662;2023-08-21T04:27:38;102450.09;;;18.60;78.95
82395;BME280;72031;51.786;4.662;2023-08-21T04:30:05;102448.41;;;18.70;78.56
82395;BME280;72031;51.786;4.662;2023-08-21T04:32:31;102449.53;;;18.78;78.13
82395;BME280;72031;51.786;4.662;2023-08-21T04:34:56;102451.25;;;18.79;78.57
82395;BME280;72031;51.786;4.662;2023-08-21T04:37:23;102445.59;;;18.82;78.39
82395;BME280;72031;51.786;4.662;2023-08-21T04:39:54;102448.66;;;18.89;77.28
82395;BME280;72031;51.786;4.662;2023-08-21T04:42:20;102448.94;;;18.97;76.96
82395;BME280;72031;51.786;4.662;2023-08-21T04:44:46;102442.31;;;19.01;77.86
82395;BME280;72031;51.786;4.662;2023-08-21T04:47:25;102436.75;;;19.03;77.32
82395;BME280;72031;51.786;4.662;2023-08-21T04:49:55;102447.22;;;18.96;77.63
82395;BME280;72031;51.786;4.662;2023-08-21T04:52:22;102449.41;;;18.91;76.96
82395;BME280;72031;51.786;4.662;2023-08-21T04:54:48;102449.56;;;19.01;76.61
82395;BME280;72031;51.786;4.662;2023-08-21T04:57:15;102448.66;;;18.78;79.05
82395;BME280;72031;51.786;4.662;2023-08-21T04:59:41;102448.84;;;18.64;80.28
82395;BME280;72031;51.786;4.662;2023-08-21T05:02:07;102448.59;;;18.55;80.11
82395;BME280;72031;51.786;4.662;2023-08-21T05:04:33;102454.72;;;18.57;79.34
82395;BME280;72031;51.786;4.662;2023-08-21T05:07:00;102454.72;;;18.57;79.18
82395;BME280;72031;51.786;4.662;2023-08-21T05:09:25;102459.41;;;18.55;79.17
82395;BME280;72031;51.786;4.662;2023-08-21T05:11:51;102462.75;;;18.59;78.23
82395;BME280;72031;51.786;4.662;2023-08-21T05:14:17;102462.34;;;18.52;79.48
82395;BME280;72031;51.786;4.662;2023-08-21T05:16:45;102463.56;;;18.48;80.91
82395;BME280;72031;51.786;4.662;2023-08-21T05:19:10;102457.28;;;18.48;80.93
82395;BME280;72031;51.786;4.662;2023-08-21T05:21:36;102457.94;;;18.51;79.83
82395;BME280;72031;51.786;4.662;2023-08-21T05:24:01;102461.38;;;18.65;79.22
82395;BME280;72031;51.786;4.662;2023-08-21T05:26:27;102460.47;;;18.77;78.88
82395;BME280;72031;51.786;4.662;2023-08-21T05:28:52;102460.34;;;18.78;78.53
82395;BME280;72031;51.786;4.662;2023-08-21T05:31:18;102464.50;;;18.71;79.90
82395;BME280;72031;51.786;4.662;2023-08-21T05:33:43;102461.81;;;18.71;80.57
82395;BME280;72031;51.786;4.662;2023-08-21T05:36:09;102463.03;;;18.67;79.52
82395;BME280;72031;51.786;4.662;2023-08-21T05:38:34;102460.09;;;18.81;77.82
82395;BME280;72031;51.786;4.662;2023-08-21T05:41:00;102468.84;;;18.96;77.79
82395;BME280;72031;51.786;4.662;2023-08-21T05:43:26;102467.66;;;19.00;78.21
82395;BME280;72031;51.786;4.662;2023-08-21T05:45:51;102474.53;;;19.04;78.64
82395;BME280;72031;51.786;4.662;2023-08-21T05:48:17;102472.41;;;19.08;78.33
82395;BME280;72031;51.786;4.662;2023-08-21T05:50:42;102466.66;;;19.12;77.59
82395;BME280;72031;51.786;4.662;2023-08-21T05:53:08;102462.97;;;19.13;78.34
82395;BME280;72031;51.786;4.662;2023-08-21T05:55:33;102472.56;;;19.18;78.17
82395;BME280;72031;51.786;4.662;2023-08-21T05:58:01;102471.06;;;19.25;77.85
82395;BME280;72031;51.786;4.662;2023-08-21T06:00:27;102466.16;;;19.30;78.04
82395;BME280;72031;51.786;4.662;2023-08-21T06:02:52;102458.16;;;19.28;78.70
82395;BME280;72031;51.786;4.662;2023-08-21T06:05:18;102471.56;;;19.30;77.50
82395;BME280;72031;51.786;4.662;2023-08-21T06:07:43;102473.06;;;19.34;77.67
82395;BME280;72031;51.786;4.662;2023-08-21T06:10:09;102466.66;;;19.35;78.21
82395;BME280;72031;51.786;4.662;2023-08-21T06:12:39;102469.59;;;19.32;78.24
82395;BME280;72031;51.786;4.662;2023-08-21T06:15:05;102468.38;;;19.36;76.51
82395;BME280;72031;51.786;4.662;2023-08-21T06:17:32;102473.41;;;19.40;75.87
82395;BME280;72031;51.786;4.662;2023-08-21T06:19:58;102478.44;;;19.45;76.23
82395;BME280;72031;51.786;4.662;2023-08-21T06:22:24;102476.09;;;19.52;76.64
82395;BME280;72031;51.786;4.662;2023-08-21T06:24:50;102478.91;;;19.50;76.20
82395;BME280;72031;51.786;4.662;2023-08-21T06:27:15;102479.66;;;19.41;76.79
82395;BME280;72031;51.786;4.662;2023-08-21T06:29:41;102482.63;;;19.38;76.68
82395;BME280;72031;51.786;4.662;2023-08-21T06:32:06;102491.13;;;19.45;76.87
82395;BME280;72031;51.786;4.662;2023-08-21T06:34:32;102485.97;;;19.53;76.36
82395;BME280;72031;51.786;4.662;2023-08-21T06:36:57;102488.53;;;19.65;76.70
82395;BME280;72031;51.786;4.662;2023-08-21T06:39:23;102488.53;;;19.77;75.80
82395;BME280;72031;51.786;4.662;2023-08-21T06:41:48;102485.56;;;19.80;76.85
82395;BME280;72031;51.786;4.662;2023-08-21T06:44:13;102486.44;;;20.12;75.19
82395;BME280;72031;51.786;4.662;2023-08-21T06:46:39;102492.09;;;20.20;75.21
82395;BME280;72031;51.786;4.662;2023-08-21T06:49:05;102489.22;;;20.01;74.58
82395;BME280;72031;51.786;4.662;2023-08-21T06:51:30;102494.28;;;19.94;76.07
82395;BME280;72031;51.786;4.662;2023-08-21T06:53:55;102487.59;;;20.10;74.96
82395;BME280;72031;51.786;4.662;2023-08-21T06:56:21;102489.09;;;20.23;75.30
82395;BME280;72031;51.786;4.662;2023-08-21T06:58:47;102495.31;;;20.14;75.48
82395;BME280;72031;51.786;4.662;2023-08-21T07:01:12;102490.94;;;20.02;76.68
82395;BME280;72031;51.786;4.662;2023-08-21T07:03:38;102497.28;;;20.12;75.93
82395;BME280;72031;51.786;4.662;2023-08-21T07:06:03;102493.94;;;20.20;76.38
82395;BME280;72031;51.786;4.662;2023-08-21T07:08:29;102494.53;;;20.23;74.64
82395;BME280;72031;51.786;4.662;2023-08-21T07:10:54;102498.75;;;20.16;75.77
82395;BME280;72031;51.786;4.662;2023-08-21T07:13:20;102497.75;;;20.17;76.12
82395;BME280;72031;51.786;4.662;2023-08-21T07:15:46;102490.59;;;20.28;74.71
82395;BME280;72031;51.786;4.662;2023-08-21T07:18:13;102496.25;;;20.24;73.87
82395;BME280;72031;51.786;4.662;2023-08-21T07:20:38;102498.22;;;20.22;74.78
82395;BME280;72031;51.786;4.662;2023-08-21T07:23:04;102497.44;;;20.32;73.97
82395;BME280;72031;51.786;4.662;2023-08-21T07:25:29;102498.66;;;20.39;73.65
82395;BME280;72031;51.786;4.662;2023-08-21T07:27:55;102501.03;;;20.32;74.09
82395;BME280;72031;51.786;4.662;2023-08-21T07:30:21;102494.53;;;20.23;75.36
82395;BME280;72031;51.786;4.662;2023-08-21T07:32:50;102504.78;;;20.20;74.68
82395;BME280;72031;51.786;4.662;2023-08-21T07:35:15;102507.06;;;20.36;74.91
82395;BME280;72031;51.786;4.662;2023-08-21T07:37:44;102510.22;;;20.52;74.27
82395;BME280;72031;51.786;4.662;2023-08-21T07:40:10;102513.72;;;20.64;73.83
82395;BME280;72031;51.786;4.662;2023-08-21T07:42:36;102510.81;;;20.76;74.47
82395;BME280;72031;51.786;4.662;2023-08-21T07:45:02;102512.56;;;20.77;72.69
82395;BME280;72031;51.786;4.662;2023-08-21T07:47:27;102510.34;;;20.71;72.30
82395;BME280;72031;51.786;4.662;2023-08-21T07:49:53;102518.69;;;20.79;73.49
82395;BME280;72031;51.786;4.662;2023-08-21T07:52:19;102511.34;;;20.91;72.37
82395;BME280;72031;51.786;4.662;2023-08-21T07:54:45;102520.19;;;21.14;73.18
82395;BME280;72031;51.786;4.662;2023-08-21T07:57:11;102514.84;;;21.03;71.42
82395;BME280;72031;51.786;4.662;2023-08-21T07:59:36;102509.84;;;21.08;71.69
82395;BME280;72031;51.786;4.662;2023-08-21T08:02:02;102517.75;;;21.11;70.80
82395;BME280;72031;51.786;4.662;2023-08-21T08:04:28;102518.91;;;21.18;70.83
82395;BME280;72031;51.786;4.662;2023-08-21T08:06:54;102513.28;;;21.31;73.30
82395;BME280;72031;51.786;4.662;2023-08-21T08:09:19;102518.75;;;21.71;69.87
82395;BME280;72031;51.786;4.662;2023-08-21T08:11:45;102518.00;;;21.69;70.60
82395;BME280;72031;51.786;4.662;2023-08-21T08:14:10;102527.78;;;21.81;68.88
82395;BME280;72031;51.786;4.662;2023-08-21T08:16:35;102518.38;;;22.05;67.78
82395;BME280;72031;51.786;4.662;2023-08-21T08:19:01;102518.06;;;21.88;68.44
82395;BME280;72031;51.786;4.662;2023-08-21T08:21:27;102510.16;;;21.85;69.41
82395;BME280;72031;51.786;4.662;2023-08-21T08:23:52;102510.06;;;22.06;68.38
82395;BME280;72031;51.786;4.662;2023-08-21T08:26:18;102519.31;;;21.75;68.84
82395;BME280;72031;51.786;4.662;2023-08-21T08:28:43;102510.72;;;21.70;68.52
82395;BME280;72031;51.786;4.662;2023-08-21T08:31:15;102516.72;;;21.73;70.53
82395;BME280;72031;51.786;4.662;2023-08-21T08:33:41;102518.94;;;21.99;68.68
82395;BME280;72031;51.786;4.662;2023-08-21T08:36:07;102513.84;;;22.25;69.35
82395;BME280;72031;51.786;4.662;2023-08-21T08:38:32;102515.66;;;22.05;68.54
82395;BME280;72031;51.786;4.662;2023-08-21T08:40:58;102520.13;;;22.15;67.92
82395;BME280;72031;51.786;4.662;2023-08-21T08:43:25;102509.25;;;22.44;65.66
82395;BME280;72031;51.786;4.662;2023-08-21T08:45:52;102515.69;;;22.72;65.34
82395;BME280;72031;51.786;4.662;2023-08-21T08:48:21;102510.69;;;22.87;66.54
82395;BME280;72031;51.786;4.662;2023-08-21T08:50:47;102514.53;;;22.75;66.21
82395;BME280;72031;51.786;4.662;2023-08-21T08:53:13;102510.66;;;22.68;65.55
82395;BME280;72031;51.786;4.662;2023-08-21T08:55:39;102508.25;;;22.55;66.16
82395;BME280;72031;51.786;4.662;2023-08-21T08:58:05;102517.28;;;22.56;65.43
82395;BME280;72031;51.786;4.662;2023-08-21T09:00:31;102522.13;;;22.42;65.44
82395;BME280;72031;51.786;4.662;2023-08-21T09:02:57;102518.13;;;22.66;65.62
82395;BME280;72031;51.786;4.662;2023-08-21T09:05:23;102512.53;;;22.58;65.84
82395;BME280;72031;51.786;4.662;2023-08-21T09:08:02;102514.81;;;22.72;64.19
82395;BME280;72031;51.786;4.662;2023-08-21T09:10:28;102516.13;;;22.87;63.27
82395;BME280;72031;51.786;4.662;2023-08-21T09:12:53;102515.38;;;22.75;63.25
82395;BME280;72031;51.786;4.662;2023-08-21T09:15:19;102521.41;;;22.60;63.52
82395;BME280;72031;51.786;4.662;2023-08-21T09:17:53;102512.09;;;22.72;63.26
82395;BME280;72031;51.786;4.662;2023-08-21T09:20:18;102511.75;;;23.14;61.81
82395;BME280;72031;51.786;4.662;2023-08-21T09:22:53;102496.69;;;23.47;62.39
82395;BME280;72031;51.786;4.662;2023-08-21T09:25:19;102503.28;;;23.44;61.65
82395;BME280;72031;51.786;4.662;2023-08-21T09:27:45;102501.22;;;23.66;61.38
82395;BME280;72031;51.786;4.662;2023-08-21T09:30:11;102510.97;;;23.58;60.00
82395;BME280;72031;51.786;4.662;2023-08-21T09:32:55;102512.47;;;23.43;61.38
82395;BME280;72031;51.786;4.662;2023-08-21T09:35:22;102506.38;;;23.31;62.15
82395;BME280;72031;51.786;4.662;2023-08-21T09:37:47;102509.47;;;23.09;61.41
82395;BME280;72031;51.786;4.662;2023-08-21T09:40:15;102505.41;;;23.23;61.44
82395;BME280;72031;51.786;4.662;2023-08-21T09:42:40;102494.66;;;23.49;60.23
82395;BME280;72031;51.786;4.662;2023-08-21T09:45:06;102492.09;;;23.47;60.99
82395;BME280;72031;51.786;4.662;2023-08-21T09:47:32;102491.38;;;23.45;60.10
82395;BME280;72031;51.786;4.662;2023-08-21T09:49:59;102493.56;;;23.42;56.88
82395;BME280;72031;51.786;4.662;2023-08-21T09:52:26;102498.75;;;23.35;58.02
82395;BME280;72031;51.786;4.662;2023-08-21T09:54:53;102492.59;;;23.33;60.06
82395;BME280;72031;51.786;4.662;2023-08-21T09:57:22;102492.59;;;23.33;58.90
82395;BME280;72031;51.786;4.662;2023-08-21T09:59:52;102497.88;;;23.35;56.95
82395;BME280;72031;51.786;4.662;2023-08-21T10:02:19;102493.28;;;23.35;58.34
82395;BME280;72031;51.786;4.662;2023-08-21T10:04:45;102492.69;;;23.41;58.21
82395;BME280;72031;51.786;4.662;2023-08-21T10:07:12;102487.88;;;23.63;58.19
82395;BME280;72031;51.786;4.662;2023-08-21T10:09:41;102487.97;;;23.71;58.86
82395;BME280;72031;51.786;4.662;2023-08-21T10:12:09;102492.13;;;23.75;56.85
82395;BME280;72031;51.786;4.662;2023-08-21T10:14:36;102488.63;;;23.55;56.57
82395;BME280;72031;51.786;4.662;2023-08-21T10:17:02;102492.50;;;23.52;56.49
82395;BME280;72031;51.786;4.662;2023-08-21T10:19:32;102490.19;;;23.57;58.55
82395;BME280;72031;51.786;4.662;2023-08-21T10:21:57;102497.34;;;23.86;59.33
82395;BME280;72031;51.786;4.662;2023-08-21T10:24:35;102501.09;;;23.85;59.28
82395;BME280;72031;51.786;4.662;2023-08-21T10:27:06;102505.75;;;23.75;55.39
82395;BME280;72031;51.786;4.662;2023-08-21T10:29:32;102497.06;;;24.07;52.76
82395;BME280;72031;51.786;4.662;2023-08-21T10:32:03;102492.72;;;24.14;52.06
82395;BME280;72031;51.786;4.662;2023-08-21T10:34:35;102498.69;;;24.18;53.42
82395;BME280;72031;51.786;4.662;2023-08-21T10:37:11;102490.44;;;24.27;56.60
82395;BME280;72031;51.786;4.662;2023-08-21T10:39:54;102488.31;;;24.03;55.46
82395;BME280;72031;51.786;4.662;2023-08-21T10:42:37;102479.19;;;23.95;55.48
82395;BME280;72031;51.786;4.662;2023-08-21T10:45:10;102487.16;;;23.88;55.68
82395;BME280;72031;51.786;4.662;2023-08-21T10:47:36;102483.19;;;24.00;56.68
82395;BME280;72031;51.786;4.662;2023-08-21T10:50:07;102480.84;;;24.05;56.65
82395;BME280;72031;51.786;4.662;2023-08-21T10:52:38;102475.00;;;24.36;56.73
82395;BME280;72031;51.786;4.662;2023-08-21T10:55:07;102483.34;;;24.17;54.90
82395;BME280;72031;51.786;4.662;2023-08-21T10:57:35;102490.75;;;23.89;56.78
82395;BME280;72031;51.786;4.662;2023-08-21T11:00:06;102479.44;;;23.83;57.34
82395;BME280;72031;51.786;4.662;2023-08-21T11:02:35;102472.09;;;24.20;58.15
82395;BME280;72031;51.786;4.662;2023-08-21T11:05:02;102479.69;;;24.26;54.92
82395;BME280;72031;51.786;4.662;2023-08-21T11:07:46;102476.03;;;24.35;55.18
82395;BME280;72031;51.786;4.662;2023-08-21T11:10:16;102481.22;;;24.28;55.71
82395;BME280;72031;51.786;4.662;2023-08-21T11:12:53;102468.94;;;23.89;55.74
82395;BME280;72031;51.786;4.662;2023-08-21T11:15:24;102479.69;;;24.08;55.37
82395;BME280;72031;51.786;4.662;2023-08-21T11:18:00;102482.91;;;24.39;53.89
82395;BME280;72031;51.786;4.662;2023-08-21T11:20:35;102481.44;;;24.70;52.84
82395;BME280;72031;51.786;4.662;2023-08-21T11:23:06;102490.69;;;24.78;54.32
82395;BME280;72031;51.786;4.662;2023-08-21T11:25:33;102489.03;;;24.85;53.04
82395;BME280;72031;51.786;4.662;2023-08-21T11:27:59;102494.94;;;24.72;53.84
82395;BME280;72031;51.786;4.662;2023-08-21T11:30:25;102484.03;;;24.72;55.53
82395;BME280;72031;51.786;4.662;2023-08-21T11:35:31;102481.22;;;24.28;54.36
82395;BME280;72031;51.786;4.662;2023-08-21T11:37:56;102477.59;;;24.55;57.27
82395;BME280;72031;51.786;4.662;2023-08-21T11:40:22;102475.00;;;24.80;48.26
82395;BME280;72031;51.786;4.662;2023-08-21T11:42:51;102483.19;;;24.80;53.67
82395;BME280;72031;51.786;4.662;2023-08-21T11:45:20;102485.66;;;24.65;54.16
82395;BME280;72031;51.786;4.662;2023-08-21T11:47:47;102482.34;;;24.35;53.52
82395;BME280;72031;51.786;4.662;2023-08-21T11:50:14;102473.19;;;24.27;55.07
82395;BME280;72031;51.786;4.662;2023-08-21T11:52:40;102471.56;;;24.52;56.74
82395;BME280;72031;51.786;4.662;2023-08-21T11:55:10;102474.63;;;24.31;56.89
82395;BME280;72031;51.786;4.662;2023-08-21T11:57:48;102463.69;;;24.13;54.24
82395;BME280;72031;51.786;4.662;2023-08-21T12:00:15;102463.75;;;24.21;52.98
82395;BME280;72031;51.786;4.662;2023-08-21T12:02:56;102463.38;;;24.52;55.89
82395;BME280;72031;51.786;4.662;2023-08-21T12:05:22;102455.41;;;24.84;52.86
82395;BME280;72031;51.786;4.662;2023-08-21T12:07:48;102463.13;;;24.89;53.54
82395;BME280;72031;51.786;4.662;2023-08-21T12:10:14;102466.81;;;24.36;53.27
82395;BME280;72031;51.786;4.662;2023-08-21T12:12:39;102462.28;;;24.45;52.32
82395;BME280;72031;51.786;4.662;2023-08-21T12:15:05;102459.63;;;24.79;51.44
82395;BME280;72031;51.786;4.662;2023-08-21T12:17:31;102461.03;;;24.83;52.97
82395;BME280;72031;51.786;4.662;2023-08-21T12:19:56;102464.13;;;24.88;52.28
82395;BME280;72031;51.786;4.662;2023-08-21T12:22:22;102458.56;;;24.71;54.83
82395;BME280;72031;51.786;4.662;2023-08-21T12:24:47;102463.63;;;24.40;52.41
82395;BME280;72031;51.786;4.662;2023-08-21T12:27:12;102457.59;;;24.19;54.38
82395;BME280;72031;51.786;4.662;2023-08-21T12:29:38;102457.84;;;24.43;54.83
82395;BME280;72031;51.786;4.662;2023-08-21T12:32:03;102452.06;;;24.47;52.90
82395;BME280;72031;51.786;4.662;2023-08-21T12:34:29;102459.03;;;24.41;54.82
82395;BME280;72031;51.786;4.662;2023-08-21T12:36:54;102460.31;;;24.55;53.41
82395;BME280;72031;51.786;4.662;2023-08-21T12:39:20;102470.72;;;24.15;55.30
82395;BME280;72031;51.786;4.662;2023-08-21T12:41:47;102468.59;;;24.09;57.33
82395;BME280;72031;51.786;4.662;2023-08-21T12:44:14;102470.91;;;24.32;53.83
82395;BME280;72031;51.786;4.662;2023-08-21T12:46:39;102468.66;;;24.53;52.84
82395;BME280;72031;51.786;4.662;2023-08-21T12:49:04;102470.19;;;24.74;52.72
82395;BME280;72031;51.786;4.662;2023-08-21T12:51:30;102465.03;;;24.96;52.34